Time;durP1;ratioP1;P1;durP2;ratioP2;P2;SDS_P1;SDS_P2;PMS_P1;PMS_P2;Temp;Humidity;BMP_temperature;BMP_pressure;BME280_temperature;BME280_humidity;BME280_pressure;Samples;Min_cycle;Max_cycle;Signal;HPM_P1;HPM_P2
2022/01/23 00:00:35;;;;;;;27.08;19.83;;;6.60;99.90;;;;;;5051047;28;20029;-59
2022/01/23 00:03:02;;;;;;;32.60;20.55;;;6.60;99.90;;;;;;5060509;28;20069;-60
2022/01/23 00:05:34;;;;;;;27.20;19.55;;;6.60;99.90;;;;;;5059761;28;20025;-60
2022/01/23 00:08:00;;;;;;;29.13;19.77;;;6.60;99.90;;;;;;5054873;28;20021;-60
2022/01/23 00:10:26;;;;;;;28.42;21.05;;;6.60;99.90;;;;;;5052198;28;20492;-59
2022/01/23 00:13:01;;;;;;;29.65;21.38;;;6.60;99.90;;;;;;5053056;28;20044;-60
2022/01/23 00:18:11;;;;;;;29.25;20.73;;;6.60;99.90;;;;;;5055736;28;20085;-60
2022/01/23 00:20:37;;;;;;;30.60;21.42;;;6.60;99.90;;;;;;5062478;28;20116;-60
2022/01/23 00:23:12;;;;;;;25.98;19.42;;;6.60;99.90;;;;;;5051974;28;20025;-60
2022/01/23 00:31:06;;;;;;;26.95;18.85;;;6.50;99.90;;;;;;5055756;28;20063;-60
2022/01/23 00:33:31;;;;;;;29.83;20.70;;;6.50;99.90;;;;;;5057990;28;20467;-60
2022/01/23 00:35:57;;;;;;;28.33;20.67;;;6.50;99.90;;;;;;5042711;28;20468;-60
2022/01/23 00:38:22;;;;;;;26.40;18.58;;;6.50;99.90;;;;;;5039395;28;20029;-60
2022/01/23 00:40:48;;;;;;;32.70;21.25;;;6.50;99.90;;;;;;5032818;28;20028;-60
2022/01/23 00:43:25;;;;;;;32.17;22.40;;;6.50;99.90;;;;;;5063585;28;20028;-60
2022/01/23 00:45:56;;;;;;;32.20;22.05;;;6.50;99.90;;;;;;5055745;28;20027;-60
2022/01/23 00:48:27;;;;;;;28.42;21.13;;;6.40;99.90;;;;;;5058331;28;20017;-60
2022/01/23 00:50:53;;;;;;;28.30;20.40;;;6.40;99.90;;;;;;5052433;28;20428;-60
2022/01/23 00:53:19;;;;;;;28.58;18.75;;;6.40;99.90;;;;;;5055342;28;20523;-59
2022/01/23 00:55:48;;;;;;;26.50;20.33;;;6.50;99.90;;;;;;5051036;28;20032;-60
2022/01/23 00:58:14;;;;;;;25.70;19.23;;;6.50;99.90;;;;;;5045243;28;20136;-60
2022/01/23 01:00:41;;;;;;;30.88;19.42;;;6.50;99.90;;;;;;5033520;28;20020;-60
2022/01/23 01:03:08;;;;;;;28.65;18.27;;;6.50;99.90;;;;;;5049439;28;20021;-59
2022/01/23 01:05:33;;;;;;;27.73;17.33;;;6.50;99.90;;;;;;5052486;28;20534;-60
2022/01/23 01:08:01;;;;;;;24.35;17.48;;;6.50;99.90;;;;;;5057179;28;20051;-59
2022/01/23 01:10:35;;;;;;;26.00;18.38;;;6.50;99.90;;;;;;5052667;28;20068;-60
2022/01/23 01:13:02;;;;;;;27.88;19.55;;;6.50;99.90;;;;;;5031320;28;20090;-60
2022/01/23 01:15:37;;;;;;;26.27;19.85;;;6.50;99.90;;;;;;5034195;28;20054;-60
2022/01/23 01:31:50;;;;;;;24.63;17.63;;;6.30;99.90;;;;;;5056446;28;20032;-60
2022/01/23 01:34:26;;;;;;;24.77;18.73;;;6.30;99.90;;;;;;5051495;28;20286;-59
2022/01/23 01:36:53;;;;;;;25.55;17.27;;;6.40;99.90;;;;;;5042199;28;20032;-60
2022/01/23 01:39:24;;;;;;;28.52;18.77;;;6.40;99.90;;;;;;5036023;28;20064;-60
2022/01/23 01:41:51;;;;;;;25.60;17.40;;;6.40;99.90;;;;;;5054298;28;20055;-60
2022/01/23 01:44:17;;;;;;;24.70;17.05;;;6.40;99.90;;;;;;5062821;28;20377;-59
2022/01/23 01:46:43;;;;;;;27.05;18.40;;;6.40;99.90;;;;;;5051684;28;20025;-60
2022/01/23 01:49:09;;;;;;;25.95;18.13;;;6.40;99.90;;;;;;5051398;28;20510;-60
2022/01/23 01:51:36;;;;;;;25.52;18.15;;;6.40;99.90;;;;;;5062440;28;20021;-60
2022/01/23 01:54:09;;;;;;;23.25;17.08;;;6.40;99.90;;;;;;5051869;28;20017;-59
2022/01/23 01:56:40;;;;;;;24.25;17.20;;;6.40;99.90;;;;;;5036152;28;20036;-60
2022/01/23 01:59:18;;;;;;;30.40;21.85;;;6.40;99.90;;;;;;5036421;28;20472;-60
2022/01/23 02:09:44;;;;;;;33.72;21.95;;;6.10;99.90;;;;;;5060437;28;20055;-59
2022/01/23 02:15:15;;;;;;;26.90;18.75;;;6.20;99.90;;;;;;5048644;28;20116;-60
2022/01/23 02:23:31;;;;;;;23.30;16.00;;;6.20;99.90;;;;;;5051356;28;20055;-59
2022/01/23 02:51:00;;;;;;;24.90;16.30;;;6.40;99.90;;;;;;5061763;28;20036;-60
2022/01/23 02:53:40;;;;;;;21.98;15.30;;;6.40;99.90;;;;;;5056202;28;20040;-60
2022/01/23 02:56:19;;;;;;;21.20;15.38;;;6.40;99.90;;;;;;5041268;28;20115;-60
2022/01/23 02:58:57;;;;;;;23.67;15.68;;;6.40;99.90;;;;;;5048177;28;20021;-60
2022/01/23 03:01:27;;;;;;;22.58;13.77;;;6.40;99.90;;;;;;5053642;28;20026;-60
2022/01/23 03:03:59;;;;;;;;;;;6.40;99.90;;;;;;5053932;28;20025;-60
2022/01/23 03:14:24;;;;;;;20.63;14.82;;;6.30;99.90;;;;;;5057350;28;20021;-60
2022/01/23 03:25:21;;;;;;;19.10;13.85;;;6.20;99.90;;;;;;5054263;28;20043;-60
2022/01/23 03:30:39;;;;;;;20.92;14.98;;;6.20;99.90;;;;;;5068583;28;20089;-60
2022/01/23 03:33:04;;;;;;;19.98;14.23;;;6.30;99.90;;;;;;5055998;28;20044;-60
2022/01/23 03:35:30;;;;;;;20.38;13.25;;;6.20;99.90;;;;;;5056048;28;20556;-60
2022/01/23 03:37:56;;;;;;;22.85;15.13;;;6.20;99.90;;;;;;5061988;28;20510;-60
2022/01/23 03:40:22;;;;;;;20.73;13.80;;;6.30;99.90;;;;;;5060915;28;20094;-60
2022/01/23 03:42:55;;;;;;;20.80;15.38;;;6.30;99.90;;;;;;5044237;28;20473;-59
2022/01/23 03:50:45;;;;;;;21.95;14.55;;;6.30;99.90;;;;;;5063500;28;20020;-60
2022/01/23 03:53:11;;;;;;;22.52;14.45;;;6.20;99.90;;;;;;5071753;28;20020;-60
2022/01/23 03:55:37;;;;;;;20.42;14.68;;;6.30;99.90;;;;;;5054258;28;20028;-60
2022/01/23 03:58:03;;;;;;;19.33;13.95;;;6.20;99.90;;;;;;5055376;28;20035;-60
2022/01/23 04:00:28;;;;;;;19.58;14.18;;;6.20;99.90;;;;;;5038403;28;20036;-60
2022/01/23 04:02:54;;;;;;;20.05;13.63;;;6.30;99.90;;;;;;5055341;28;20028;-59
2022/01/23 04:05:20;;;;;;;21.50;14.45;;;6.30;99.90;;;;;;5038186;28;20025;-60
2022/01/23 04:07:46;;;;;;;21.90;14.48;;;6.30;99.90;;;;;;5050455;28;20021;-60
2022/01/23 04:10:15;;;;;;;20.17;14.13;;;6.30;99.90;;;;;;5041634;28;20539;-60
2022/01/23 04:12:55;;;;;;;21.80;14.88;;;6.30;99.90;;;;;;5060111;28;20021;-60
2022/01/23 04:15:41;;;;;;;22.08;15.27;;;6.30;99.90;;;;;;5055517;28;20029;-60
2022/01/23 04:18:41;;;;;;;20.80;13.98;;;6.20;99.90;;;;;;5054737;28;20397;-59
2022/01/23 04:21:20;;;;;;;;;;;;;;;;;;;;;
2022/01/23 04:32:09;;;;;;;19.35;13.68;;;6.20;99.90;;;;;;5058895;28;20086;-60
2022/01/23 04:48:52;;;;;;;19.55;13.18;;;6.30;99.90;;;;;;5053766;28;20028;-59
2022/01/23 04:59:34;;;;;;;25.52;17.58;;;6.30;99.90;;;;;;5049737;28;20079;-60
2022/01/23 05:00:03;;;;;;;24.85;16.45;;;6.20;99.90;;;;;;5058103;28;20047;-60
2022/01/23 05:02:35;;;;;;;25.20;17.00;;;6.20;99.90;;;;;;5051779;28;20121;-60
2022/01/23 05:04:55;;;;;;;24.15;16.50;;;6.20;99.90;;;;;;5057505;28;20049;-60
2022/01/23 05:07:26;;;;;;;23.98;16.52;;;6.20;99.90;;;;;;5052317;28;20021;-60
2022/01/23 05:09:51;;;;;;;25.40;16.52;;;6.20;99.90;;;;;;5032143;28;20025;-60
2022/01/23 05:12:17;;;;;;;23.20;15.57;;;6.20;99.90;;;;;;5052052;28;20078;-60
2022/01/23 05:14:45;;;;;;;22.50;15.48;;;6.20;99.90;;;;;;5059021;28;20028;-59
2022/01/23 05:17:13;;;;;;;23.95;16.23;;;6.20;99.90;;;;;;5050146;28;20472;-59
2022/01/23 05:19:40;;;;;;;23.60;14.95;;;6.20;99.90;;;;;;5054828;28;20020;-60
2022/01/23 05:22:22;;;;;;;22.92;15.60;;;6.20;99.90;;;;;;5034022;28;20035;-60
2022/01/23 05:25:09;;;;;;;22.83;15.13;;;6.20;99.90;;;;;;5033805;28;20114;-59
2022/01/23 05:27:35;;;;;;;20.60;14.07;;;6.20;99.90;;;;;;5051680;28;20200;-60
2022/01/23 05:30:01;;;;;;;22.65;14.60;;;6.20;99.90;;;;;;5048924;28;20100;-60
2022/01/23 05:32:33;;;;;;;20.48;14.25;;;6.20;99.90;;;;;;5060143;28;20039;-60
2022/01/23 05:34:58;;;;;;;21.98;15.13;;;6.20;99.90;;;;;;5040186;28;20451;-60
2022/01/23 05:37:24;;;;;;;22.50;15.68;;;6.20;99.90;;;;;;5052385;28;20021;-60
2022/01/23 05:39:49;;;;;;;22.52;15.35;;;6.20;99.90;;;;;;5042642;28;20112;-60
2022/01/23 05:42:15;;;;;;;20.58;14.20;;;6.20;99.90;;;;;;5039229;28;20025;-60
2022/01/23 05:44:42;;;;;;;22.77;16.00;;;6.30;99.90;;;;;;5060993;28;20113;-60
2022/01/23 05:47:09;;;;;;;21.50;14.90;;;6.20;99.90;;;;;;5053016;28;20383;-60
2022/01/23 05:49:35;;;;;;;20.58;14.65;;;6.30;99.90;;;;;;5051718;28;20017;-60
2022/01/23 05:52:02;;;;;;;20.45;14.30;;;6.30;99.90;;;;;;5043017;28;20518;-60
2022/01/23 05:54:28;;;;;;;22.92;14.23;;;6.30;99.90;;;;;;5041658;28;20131;-60
2022/01/23 05:56:54;;;;;;;23.42;14.38;;;6.30;99.90;;;;;;5044334;28;20111;-59
2022/01/23 05:59:22;;;;;;;18.55;12.82;;;6.30;99.90;;;;;;5059667;28;20033;-60
2022/01/23 06:01:52;;;;;;;21.25;14.15;;;6.40;99.90;;;;;;5060995;28;20025;-59
2022/01/23 06:04:22;;;;;;;20.55;13.27;;;6.30;99.90;;;;;;5054102;28;20024;-60
2022/01/23 06:06:51;;;;;;;;;;;6.40;99.90;;;;;;5051746;28;20028;-60
2022/01/23 06:09:20;;;;;;;17.38;11.60;;;6.30;99.90;;;;;;5059430;28;19996;-60
2022/01/23 06:11:45;;;;;;;18.98;13.32;;;6.30;99.90;;;;;;5050083;28;20099;-59
2022/01/23 06:14:11;;;;;;;20.30;13.93;;;6.30;99.90;;;;;;5034408;28;20114;-59
2022/01/23 06:16:37;;;;;;;18.83;13.65;;;6.30;99.90;;;;;;5052344;28;20020;-60
2022/01/23 06:19:03;;;;;;;21.58;13.35;;;6.40;99.90;;;;;;5051964;28;20100;-60
2022/01/23 06:21:29;;;;;;;21.05;14.25;;;6.40;99.90;;;;;;5052124;28;20551;-60
2022/01/23 06:24:05;;;;;;;19.95;13.73;;;6.40;99.90;;;;;;5052411;28;20052;-60
2022/01/23 06:26:55;;;;;;;18.85;13.20;;;6.40;99.90;;;;;;5057306;28;20023;-59
2022/01/23 06:29:21;;;;;;;19.45;12.85;;;6.40;99.90;;;;;;5066486;28;20121;-59
2022/01/23 06:31:48;;;;;;;19.08;12.55;;;6.40;99.90;;;;;;5068399;28;20033;-59
2022/01/23 06:34:16;;;;;;;20.77;13.63;;;6.40;99.90;;;;;;5071995;28;20536;-60
2022/01/23 06:36:42;;;;;;;20.25;13.50;;;6.40;99.90;;;;;;5072411;28;20024;-59
2022/01/23 06:39:11;;;;;;;21.08;13.60;;;6.40;99.90;;;;;;5072308;28;20024;-60
2022/01/23 06:41:38;;;;;;;26.63;17.60;;;6.40;99.90;;;;;;5056852;28;20029;-59
2022/01/23 06:44:05;;;;;;;27.65;19.45;;;6.40;99.90;;;;;;5074813;28;20074;-60
2022/01/23 06:46:33;;;;;;;32.13;21.25;;;6.20;99.90;;;;;;5075752;28;20074;-59
2022/01/23 06:49:00;;;;;;;33.45;22.42;;;6.10;99.90;;;;;;5075526;28;20020;-60
2022/01/23 06:51:26;;;;;;;31.70;21.25;;;6.00;99.90;;;;;;5058193;28;20020;-60
2022/01/23 06:53:52;;;;;;;30.38;20.58;;;6.00;99.90;;;;;;5076059;28;20035;-60
2022/01/23 06:56:18;;;;;;;28.45;19.17;;;6.00;99.90;;;;;;5057602;28;20039;-59
2022/01/23 06:58:43;;;;;;;29.73;19.45;;;6.10;99.90;;;;;;5057763;28;20028;-59
2022/01/23 07:01:10;;;;;;;30.73;20.67;;;6.00;99.90;;;;;;5075200;28;20033;-59
2022/01/23 07:03:35;;;;;;;32.55;22.63;;;6.10;99.90;;;;;;5075934;28;20023;-59
2022/01/23 07:06:01;;;;;;;33.85;23.30;;;6.10;99.90;;;;;;5075772;28;20468;-59
2022/01/23 07:08:26;;;;;;;30.27;20.48;;;6.10;99.90;;;;;;5075783;28;20025;-59
2022/01/23 07:10:52;;;;;;;29.40;19.20;;;6.10;99.90;;;;;;5057632;28;20040;-60
2022/01/23 07:13:18;;;;;;;29.45;19.20;;;6.10;99.90;;;;;;5057575;28;20028;-60
2022/01/23 07:15:44;;;;;;;27.90;17.35;;;6.10;99.90;;;;;;5057594;28;20104;-59
2022/01/23 07:18:09;;;;;;;23.20;15.93;;;6.20;99.90;;;;;;5075519;28;20025;-59
2022/01/23 07:20:36;;;;;;;21.85;15.68;;;6.20;99.90;;;;;;5056589;28;20504;-60
2022/01/23 07:23:01;;;;;;;21.65;14.27;;;6.20;99.90;;;;;;5056278;28;20036;-60
2022/01/23 07:25:27;;;;;;;20.13;14.07;;;6.20;99.90;;;;;;5071512;28;20484;-60
2022/01/23 07:27:56;;;;;;;22.90;15.35;;;6.30;99.90;;;;;;5053716;28;20037;-60
2022/01/23 07:30:30;;;;;;;21.23;14.67;;;6.30;99.90;;;;;;5075360;28;20096;-60
2022/01/23 07:32:55;;;;;;;19.52;13.65;;;6.30;99.90;;;;;;5075445;28;20086;-60
2022/01/23 07:35:21;;;;;;;20.38;13.40;;;6.30;99.90;;;;;;5057008;28;20468;-59
2022/01/23 07:37:46;;;;;;;24.52;15.15;;;6.30;99.90;;;;;;5056964;28;20032;-60
2022/01/23 07:40:12;;;;;;;21.75;14.85;;;6.20;99.90;;;;;;5073903;28;20030;-60
2022/01/23 07:42:39;;;;;;;21.13;15.02;;;6.30;99.90;;;;;;5073079;28;20039;-60
2022/01/23 07:45:05;;;;;;;28.38;16.02;;;6.20;99.90;;;;;;5067576;28;20515;-60
2022/01/23 07:47:31;;;;;;;25.27;15.82;;;6.30;99.90;;;;;;5070058;28;20541;-60
2022/01/23 07:50:08;;;;;;;22.73;15.25;;;6.30;99.90;;;;;;5056005;28;20028;-60
2022/01/23 07:52:38;;;;;;;23.65;15.02;;;6.30;99.90;;;;;;5055937;28;20052;-59
2022/01/23 07:55:10;;;;;;;24.38;15.55;;;6.30;99.90;;;;;;5069298;28;20108;-59
2022/01/23 07:57:37;;;;;;;25.92;16.38;;;6.30;99.90;;;;;;5072845;28;20032;-60
2022/01/23 08:00:07;;;;;;;25.05;17.30;;;6.30;99.90;;;;;;5070222;28;20049;-59
2022/01/23 08:02:34;;;;;;;25.40;17.02;;;6.30;99.90;;;;;;5071671;28;20025;-60
2022/01/23 08:04:59;;;;;;;26.48;16.92;;;6.20;99.90;;;;;;5073688;28;20024;-59
2022/01/23 08:07:34;;;;;;;22.80;16.13;;;6.20;99.90;;;;;;5073374;28;20016;-60
2022/01/23 08:10:03;;;;;;;25.27;16.83;;;6.20;99.90;;;;;;5054598;28;20024;-59
2022/01/23 08:12:30;;;;;;;24.50;15.98;;;6.20;99.90;;;;;;5065189;28;20031;-59
2022/01/23 08:15:20;;;;;;;;;;;;;;;;;;;;;
2022/01/23 08:17:49;;;;;;;25.15;15.32;;;6.30;99.90;;;;;;5070175;28;20031;-60
2022/01/23 08:20:33;;;;;;;;;;;;;;;;;;;;;
2022/01/23 08:23:57;;;;;;;;;;;;;;;;;;;;;
2022/01/23 08:30:12;;;;;;;29.52;18.20;;;6.30;99.90;;;;;;4967780;28;20069;-60
2022/01/23 08:32:37;;;;;;;27.15;15.70;;;6.30;99.90;;;;;;5039219;28;20035;-60
2022/01/23 08:35:04;;;;;;;30.67;16.35;;;6.30;99.90;;;;;;5055159;28;20779;-59
2022/01/23 08:37:30;;;;;;;28.73;16.55;;;6.30;99.90;;;;;;5070450;28;20108;-59
2022/01/23 08:40:16;;;;;;;25.02;16.35;;;6.40;99.90;;;;;;5055497;28;20129;-60
2022/01/23 08:42:42;;;;;;;28.63;17.25;;;6.50;99.90;;;;;;5056044;28;20056;-60
2022/01/23 08:45:39;;;;;;;28.35;16.25;;;6.40;99.90;;;;;;5073581;28;20129;-60
2022/01/23 08:48:10;;;;;;;26.75;16.52;;;6.50;99.90;;;;;;5073064;28;20035;-60
2022/01/23 08:50:36;;;;;;;25.88;15.80;;;6.50;99.90;;;;;;5073586;28;20052;-59
2022/01/23 08:53:01;;;;;;;25.00;15.25;;;6.50;99.90;;;;;;5073816;28;20060;-59
2022/01/23 08:55:27;;;;;;;26.80;16.27;;;6.60;99.90;;;;;;5073648;28;20482;-59
2022/01/23 08:57:53;;;;;;;34.42;20.58;;;6.60;99.90;;;;;;5054940;28;20016;-60
2022/01/23 09:00:19;;;;;;;42.85;26.15;;;6.60;99.90;;;;;;5073054;28;20089;-59
2022/01/23 09:02:45;;;;;;;43.47;23.92;;;6.60;99.90;;;;;;5072032;28;20040;-60
2022/01/23 09:05:11;;;;;;;36.45;22.50;;;6.50;99.90;;;;;;5050947;28;20047;-60
2022/01/23 09:07:36;;;;;;;31.73;19.00;;;6.60;99.90;;;;;;5070778;28;20175;-60
2022/01/23 09:10:03;;;;;;;33.33;20.00;;;6.60;99.90;;;;;;5051698;28;20540;-60
2022/01/23 09:15:04;;;;;;;25.98;17.83;;;6.70;99.90;;;;;;5073344;28;20025;-59
2022/01/23 09:17:29;;;;;;;29.70;18.63;;;6.70;99.90;;;;;;5073305;28;20113;-59
2022/01/23 09:19:55;;;;;;;28.20;17.80;;;6.80;99.90;;;;;;5073560;28;20533;-59
2022/01/23 09:22:20;;;;;;;26.70;16.60;;;6.80;99.90;;;;;;5055147;28;20475;-59
2022/01/23 09:24:46;;;;;;;28.90;16.35;;;6.80;99.90;;;;;;5055009;28;20039;-59
2022/01/23 09:27:18;;;;;;;26.58;16.33;;;6.90;99.90;;;;;;5054877;28;20020;-59
2022/01/23 09:29:48;;;;;;;28.45;16.13;;;6.90;99.90;;;;;;5073096;28;20020;-59
2022/01/23 09:32:15;;;;;;;29.70;17.30;;;6.90;99.90;;;;;;5071810;28;20017;-59
2022/01/23 09:34:43;;;;;;;29.38;17.40;;;6.90;99.90;;;;;;5072061;28;20074;-60
2022/01/23 09:37:11;;;;;;;30.17;17.15;;;7.00;99.90;;;;;;5068627;28;20099;-59
2022/01/23 09:39:58;;;;;;;31.02;17.45;;;7.00;99.90;;;;;;5066263;28;20123;-60
2022/01/23 09:42:49;;;;;;;27.02;16.95;;;7.10;99.90;;;;;;5050771;28;20043;-60
2022/01/23 09:45:15;;;;;;;29.20;17.20;;;7.10;99.90;;;;;;5071748;28;20074;-60
2022/01/23 09:47:42;;;;;;;31.35;18.75;;;7.10;99.90;;;;;;5066405;28;20419;-60
2022/01/23 09:50:09;;;;;;;28.85;18.30;;;7.10;99.90;;;;;;5047613;28;20024;-60
2022/01/23 09:52:37;;;;;;;30.75;18.58;;;7.20;99.90;;;;;;5065584;28;20021;-60
2022/01/23 09:55:09;;;;;;;36.00;19.02;;;7.20;99.90;;;;;;5070765;28;20040;-59
2022/01/23 09:57:49;;;;;;;33.80;18.20;;;7.20;99.90;;;;;;5071804;28;20464;-60
2022/01/23 10:00:20;;;;;;;28.05;18.25;;;7.20;99.90;;;;;;5049942;28;20029;-60
2022/01/23 10:02:46;;;;;;;29.90;18.38;;;7.20;99.90;;;;;;5071432;28;20016;-60
2022/01/23 10:05:12;;;;;;;28.88;18.25;;;7.20;99.90;;;;;;5071749;28;20063;-59
2022/01/23 10:07:39;;;;;;;30.50;18.40;;;7.30;99.90;;;;;;5066885;28;20021;-60
2022/01/23 10:10:14;;;;;;;31.48;19.15;;;7.30;99.90;;;;;;5070951;28;20044;-60
2022/01/23 10:12:50;;;;;;;33.28;18.67;;;7.30;99.90;;;;;;5071566;28;20017;-60
2022/01/23 10:15:18;;;;;;;29.55;17.67;;;7.40;99.90;;;;;;5070650;28;20104;-60
2022/01/23 10:17:44;;;;;;;31.98;18.88;;;7.30;99.90;;;;;;5072902;28;20017;-60
2022/01/23 10:24:01;;;;;;;26.88;16.85;;;7.40;99.90;;;;;;5067081;28;20036;-60
2022/01/23 10:26:50;;;;;;;37.55;23.58;;;7.40;99.90;;;;;;5028445;28;20059;-60
2022/01/23 10:29:18;;;;;;;42.58;26.83;;;7.40;99.90;;;;;;5052607;28;20041;-60
2022/01/23 10:32:10;;;;;;;48.53;27.58;;;7.30;99.90;;;;;;5072436;28;20033;-59
2022/01/23 10:34:46;;;;;;;43.58;24.95;;;7.20;99.90;;;;;;5056709;28;20021;-59
2022/01/23 10:37:27;;;;;;;39.30;23.65;;;7.20;99.90;;;;;;5073094;28;20150;-60
2022/01/23 10:39:52;;;;;;;33.25;22.15;;;7.10;99.90;;;;;;5075205;28;20063;-60
2022/01/23 10:50:47;;;;;;;24.63;15.40;;;7.60;99.90;;;;;;5072120;28;20495;-60
2022/01/23 10:53:12;;;;;;;25.38;15.38;;;7.60;99.90;;;;;;5075166;28;20067;-60
2022/01/23 10:55:38;;;;;;;26.88;15.85;;;7.70;99.90;;;;;;5076087;28;20025;-60
2022/01/23 10:58:18;;;;;;;23.17;14.88;;;7.70;99.90;;;;;;5057981;28;20020;-60
2022/01/23 11:00:43;;;;;;;22.08;14.27;;;7.80;99.90;;;;;;5075749;28;20028;-60
2022/01/23 11:03:29;;;;;;;28.23;17.55;;;7.80;99.90;;;;;;5075500;28;20039;-60
2022/01/23 11:06:48;;;;;;;28.23;17.13;;;7.90;99.90;;;;;;5045404;28;20029;-60
2022/01/23 11:09:13;;;;;;;22.50;14.73;;;7.90;99.90;;;;;;4958685;28;20023;-60
2022/01/23 11:11:47;;;;;;;35.83;22.67;;;7.90;99.90;;;;;;4965448;28;20488;-60
2022/01/23 11:17:49;;;;;;;32.95;21.25;;;7.80;99.90;;;;;;5055775;28;20499;-60
2022/01/23 11:21:06;;;;;;;35.00;22.02;;;7.60;99.90;;;;;;5037733;28;20092;-59
2022/01/23 11:23:34;;;;;;;31.90;20.05;;;7.60;99.90;;;;;;5005313;28;20030;-60
2022/01/23 11:26:00;;;;;;;28.60;18.00;;;7.60;99.90;;;;;;5058012;28;20051;-60
2022/01/23 11:28:33;;;;;;;25.33;16.83;;;7.70;99.90;;;;;;5062041;28;20081;-60
2022/01/23 11:30:59;;;;;;;29.58;19.05;;;7.80;99.90;;;;;;5065077;28;20027;-60
2022/01/23 11:33:25;;;;;;;28.70;17.70;;;7.80;99.90;;;;;;5056882;28;20024;-59
2022/01/23 11:36:09;;;;;;;;;;;;;;;;;;;;;
2022/01/23 11:39:04;;;;;;;;;;;;;;;;;;;;;
2022/01/23 11:53:48;;;;;;;31.17;19.35;;;7.90;99.90;;;;;;4970269;28;20592;-60
2022/01/23 11:56:30;;;;;;;30.90;18.60;;;7.90;99.90;;;;;;5054957;28;20025;-60
2022/01/23 11:59:16;;;;;;;26.63;16.55;;;7.90;99.90;;;;;;5068829;28;20024;-60
2022/01/23 12:01:44;;;;;;;26.75;17.15;;;7.90;99.90;;;;;;5071359;28;20023;-60
2022/01/23 12:04:38;;;;;;;30.20;18.92;;;7.90;99.90;;;;;;5069202;28;20028;-60
2022/01/23 12:07:29;;;;;;;28.85;16.40;;;8.00;99.90;;;;;;5050789;28;20492;-60
2022/01/23 12:10:30;;;;;;;23.77;15.80;;;8.10;99.90;;;;;;5046665;28;20028;-60
2022/01/23 12:13:33;;;;;;;29.95;18.55;;;8.10;99.90;;;;;;5070265;28;20021;-60
2022/01/23 12:19:14;;;;;;;33.95;19.58;;;8.10;99.90;;;;;;5070125;28;20055;-60
2022/01/23 12:21:53;;;;;;;;;;;;;;;;;;;;;
2022/01/23 12:24:55;;;;;;;27.23;16.90;;;8.10;99.90;;;;;;5069355;28;20016;-60
2022/01/23 12:31:23;;;;;;;28.67;18.90;;;8.10;99.90;;;;;;5039016;28;20043;-60
2022/01/23 12:37:09;;;;;;;23.77;15.00;;;8.00;99.90;;;;;;5053468;28;20082;-60
2022/01/23 12:39:57;;;;;;;25.88;16.52;;;8.10;99.90;;;;;;5067736;28;20032;-60
2022/01/23 12:43:24;;;;;;;30.17;19.35;;;8.10;99.90;;;;;;5072972;28;20028;-60
2022/01/23 12:46:08;;;;;;;21.60;14.65;;;8.20;99.90;;;;;;5055794;28;20049;-60
2022/01/23 12:48:54;;;;;;;28.20;17.80;;;8.20;99.90;;;;;;5073710;28;20035;-59
2022/01/23 12:51:19;;;;;;;27.70;17.58;;;8.20;99.90;;;;;;5073778;28;20039;-60
2022/01/23 12:53:45;;;;;;;23.50;15.55;;;8.10;99.90;;;;;;5055706;28;20025;-60
2022/01/23 12:56:20;;;;;;;27.45;16.02;;;8.00;99.90;;;;;;5055885;28;20025;-60
2022/01/23 12:58:59;;;;;;;24.23;14.95;;;8.00;99.90;;;;;;5073728;28;20029;-60
2022/01/23 13:01:28;;;;;;;20.05;13.05;;;8.10;99.90;;;;;;5054093;28;20120;-60
2022/01/23 13:03:55;;;;;;;20.55;13.13;;;8.10;99.90;;;;;;5071622;28;20476;-60
2022/01/23 13:06:49;;;;;;;20.02;12.27;;;8.20;99.90;;;;;;5061494;28;20040;-60
2022/01/23 13:09:21;;;;;;;29.50;17.60;;;8.30;99.90;;;;;;5047853;28;20392;-60
2022/01/23 13:12:36;;;;;;;27.88;18.25;;;8.30;99.90;;;;;;5054919;28;20032;-60
2022/01/23 13:32:25;;;;;;;21.38;14.18;;;8.10;99.90;;;;;;5054930;28;20047;-60
2022/01/23 13:34:57;;;;;;;25.70;15.98;;;8.00;99.90;;;;;;5049368;28;20036;-60
2022/01/23 13:37:26;;;;;;;24.10;14.75;;;8.00;99.90;;;;;;5051517;28;20076;-60
2022/01/23 13:40:22;;;;;;;24.55;15.65;;;8.10;99.90;;;;;;5069969;28;20026;-60
2022/01/23 14:02:36;;;;;;;17.17;10.93;;;8.30;99.90;;;;;;5071239;28;20024;-60
2022/01/23 14:05:14;;;;;;;17.63;11.15;;;8.30;99.90;;;;;;5069915;28;20025;-60
2022/01/23 14:07:49;;;;;;;16.83;9.95;;;8.40;99.90;;;;;;5053238;28;20419;-60
2022/01/23 14:10:18;;;;;;;19.75;13.07;;;8.50;99.90;;;;;;5068722;28;20017;-60
2022/01/23 14:12:46;;;;;;;25.58;16.25;;;8.40;99.90;;;;;;5068415;28;20070;-60
2022/01/23 14:15:16;;;;;;;22.83;15.07;;;8.40;99.90;;;;;;5034212;28;20090;-60
2022/01/23 14:17:43;;;;;;;24.63;15.82;;;8.30;99.90;;;;;;5052341;28;20028;-60
2022/01/23 14:20:16;;;;;;;23.73;16.23;;;8.30;99.90;;;;;;5069374;28;20012;-60
2022/01/23 14:22:47;;;;;;;27.92;16.63;;;8.30;99.90;;;;;;5053189;28;20442;-60
2022/01/23 14:25:22;;;;;;;19.50;13.93;;;8.20;99.90;;;;;;5071147;28;20021;-60
2022/01/23 14:28:20;;;;;;;23.08;14.70;;;8.20;99.90;;;;;;5050999;28;20128;-60
2022/01/23 14:30:53;;;;;;;22.45;15.20;;;8.20;99.90;;;;;;5060969;28;20610;-60
2022/01/23 14:33:23;;;;;;;24.42;15.43;;;8.10;99.90;;;;;;5052307;28;20032;-60
2022/01/23 14:35:50;;;;;;;26.15;15.35;;;8.00;99.90;;;;;;5046547;28;20021;-59
2022/01/23 14:38:23;;;;;;;20.45;13.60;;;8.00;99.90;;;;;;5071967;28;20361;-60
2022/01/23 14:40:54;;;;;;;21.35;14.43;;;8.00;99.90;;;;;;5053016;28;20024;-60
2022/01/23 14:43:20;;;;;;;22.40;14.45;;;8.10;99.90;;;;;;5046716;28;20074;-60
2022/01/23 14:46:07;;;;;;;;;;;;;;;;;;;;;
2022/01/23 14:48:40;;;;;;;20.60;13.70;;;8.10;99.90;;;;;;5070758;28;20038;-60
2022/01/23 14:51:19;;;;;;;23.98;14.88;;;8.10;99.90;;;;;;5067577;28;20036;-59
2022/01/23 14:53:44;;;;;;;24.67;14.82;;;8.10;99.90;;;;;;5049023;28;20056;-59
2022/01/23 14:56:13;;;;;;;23.48;14.30;;;8.00;99.90;;;;;;5061761;28;20476;-60
2022/01/23 14:58:39;;;;;;;21.75;13.95;;;8.00;99.90;;;;;;5060493;28;20021;-59
2022/01/23 15:01:08;;;;;;;22.63;14.15;;;7.90;99.90;;;;;;5053439;28;20075;-59
2022/01/23 15:03:34;;;;;;;22.97;13.40;;;7.90;99.90;;;;;;5057334;28;20028;-59
2022/01/23 15:06:00;;;;;;;23.00;14.02;;;7.80;99.90;;;;;;5072875;28;20020;-59
2022/01/23 15:08:27;;;;;;;19.58;12.65;;;7.80;99.90;;;;;;5075219;28;20028;-60
2022/01/23 15:10:56;;;;;;;21.58;13.95;;;7.80;99.90;;;;;;5075275;28;20031;-60
2022/01/23 15:13:22;;;;;;;22.23;13.10;;;7.80;99.90;;;;;;5071515;28;20051;-59
2022/01/23 15:15:50;;;;;;;18.55;11.68;;;7.80;99.90;;;;;;5073985;28;20468;-59
2022/01/23 15:18:16;;;;;;;18.13;11.60;;;7.80;99.90;;;;;;5056613;28;20078;-60
2022/01/23 15:20:42;;;;;;;19.40;11.88;;;7.80;99.90;;;;;;5074774;28;20174;-60
2022/01/23 15:23:09;;;;;;;18.75;11.88;;;7.80;99.90;;;;;;5074575;28;20501;-59
2022/01/23 15:25:35;;;;;;;21.13;12.73;;;7.80;99.90;;;;;;5075400;28;20024;-59
2022/01/23 15:28:01;;;;;;;18.85;12.43;;;7.80;99.90;;;;;;5055650;28;20166;-59
2022/01/23 15:30:44;;;;;;;19.15;12.48;;;7.80;99.90;;;;;;5073737;28;20036;-60
2022/01/23 15:33:41;;;;;;;22.65;13.45;;;7.70;99.90;;;;;;5056540;28;20033;-60
2022/01/23 15:36:07;;;;;;;20.23;13.57;;;7.70;99.90;;;;;;5075145;28;20068;-60
2022/01/23 15:38:34;;;;;;;19.25;12.45;;;7.60;99.90;;;;;;5075474;28;20449;-59
2022/01/23 15:41:00;;;;;;;19.33;12.15;;;7.60;99.90;;;;;;5075129;28;20545;-59
2022/01/23 15:43:32;;;;;;;18.52;11.85;;;7.60;99.90;;;;;;5075027;28;20025;-60
2022/01/23 15:45:58;;;;;;;16.98;10.68;;;7.70;99.90;;;;;;5054428;28;20423;-59
2022/01/23 15:48:24;;;;;;;15.48;10.52;;;7.70;99.90;;;;;;5074840;28;20025;-59
2022/01/23 15:50:49;;;;;;;18.88;12.40;;;7.80;99.90;;;;;;5074271;28;20506;-59
2022/01/23 15:53:15;;;;;;;15.07;9.98;;;7.80;99.90;;;;;;5056310;28;20036;-59
2022/01/23 15:55:41;;;;;;;16.85;11.40;;;7.80;99.90;;;;;;5056988;28;20028;-59
2022/01/23 15:58:07;;;;;;;18.58;10.85;;;7.90;99.90;;;;;;5074880;28;20396;-59
2022/01/23 16:00:33;;;;;;;13.18;9.13;;;7.90;99.90;;;;;;5074763;28;20396;-59
2022/01/23 16:03:02;;;;;;;11.70;8.13;;;7.90;99.90;;;;;;5074788;28;20024;-60
2022/01/23 16:05:27;;;;;;;13.95;9.80;;;7.90;99.90;;;;;;5074790;28;20082;-59
2022/01/23 16:07:53;;;;;;;18.58;12.57;;;7.90;99.90;;;;;;5074633;28;20430;-59
2022/01/23 16:10:19;;;;;;;19.17;12.27;;;7.80;99.90;;;;;;5056596;28;20555;-59
2022/01/23 16:13:02;;;;;;;26.65;16.75;;;7.70;99.90;;;;;;5074488;28;20020;-60
2022/01/23 16:15:28;;;;;;;31.40;19.60;;;7.60;99.90;;;;;;5055264;28;20124;-59
2022/01/23 16:17:54;;;;;;;30.30;19.45;;;7.50;99.90;;;;;;5074525;28;20020;-59
2022/01/23 16:20:20;;;;;;;29.67;18.88;;;7.40;99.90;;;;;;5074377;28;20029;-59
2022/01/23 16:22:47;;;;;;;29.35;19.45;;;7.30;99.90;;;;;;5079742;28;20027;-59
2022/01/23 16:25:14;;;;;;;29.58;18.70;;;7.30;99.90;;;;;;5085592;28;20480;-59
2022/01/23 16:27:40;;;;;;;29.40;20.23;;;7.20;99.90;;;;;;5084404;28;20048;-59